createdAt,value
2024-04-11T00:01:52.059Z,5.10
2024-04-11T00:04:08.936Z,4.60
2024-04-11T00:06:22.493Z,4.50
2024-04-11T00:08:33.750Z,4.70
2024-04-11T00:10:45.165Z,5.00
2024-04-11T00:12:56.844Z,5.40
2024-04-11T00:15:08.372Z,5.80
2024-04-11T00:17:20.463Z,5.30
2024-04-11T00:19:31.902Z,5.50
2024-04-11T00:21:43.488Z,5.20
2024-04-11T00:23:55.033Z,4.70
2024-04-11T00:26:08.620Z,4.90
2024-04-11T00:28:21.149Z,4.80
2024-04-11T00:30:32.591Z,5.40
2024-04-11T00:32:44.439Z,5.00
2024-04-11T00:34:56.275Z,4.90
2024-04-11T00:37:08.480Z,5.60
2024-04-11T00:39:21.627Z,5.50
2024-04-11T00:41:34.136Z,5.90
2024-04-11T00:43:45.700Z,6.20
2024-04-11T00:45:59.540Z,6.20
2024-04-11T00:48:12.875Z,5.80
2024-04-11T00:50:28.960Z,5.60
2024-04-11T00:52:44.981Z,6.60
2024-04-11T00:54:58.068Z,6.40
2024-04-11T00:57:10.795Z,6.40
2024-04-11T00:59:22.508Z,6.90
2024-04-11T01:01:33.931Z,6.50
2024-04-11T01:03:49.248Z,6.70
2024-04-11T01:06:01.172Z,6.90
2024-04-11T01:08:13.191Z,6.70
2024-04-11T01:10:26.532Z,6.40
2024-04-11T01:12:38.307Z,6.60
2024-04-11T01:14:51.259Z,6.60
2024-04-11T01:17:03.205Z,6.70
2024-04-11T01:19:15.127Z,6.90
2024-04-11T01:21:27.824Z,6.50
2024-04-11T01:23:40.058Z,6.90
2024-04-11T01:25:52.125Z,6.60
2024-04-11T01:28:03.707Z,6.30
2024-04-11T01:30:15.343Z,6.30
2024-04-11T01:32:29.539Z,6.60
2024-04-11T01:34:41.606Z,5.80
2024-04-11T01:36:53.534Z,6.50
2024-04-11T01:39:06.501Z,5.70
2024-04-11T01:41:18.137Z,5.80
2024-04-11T01:43:29.622Z,6.20
2024-04-11T01:45:42.711Z,6.20
2024-04-11T01:47:54.969Z,6.70
2024-04-11T01:50:07.526Z,6.30
2024-04-11T01:52:19.232Z,6.10
2024-04-11T01:54:30.923Z,6.40
2024-04-11T01:56:42.534Z,6.50
2024-04-11T01:58:54.612Z,6.40
2024-04-11T02:01:11.027Z,6.50
2024-04-11T02:03:28.160Z,6.80
2024-04-11T02:05:40.214Z,6.40
2024-04-11T02:07:51.593Z,7.10
2024-04-11T02:10:04.117Z,7.00
2024-04-11T02:12:15.831Z,6.70
2024-04-11T02:14:28.643Z,6.20
2024-04-11T02:16:41.118Z,6.80
2024-04-11T02:18:52.922Z,7.00
2024-04-11T02:21:05.635Z,6.60
2024-04-11T02:23:17.540Z,6.40
2024-04-11T02:25:29.396Z,6.90
2024-04-11T02:27:41.258Z,6.60
2024-04-11T02:29:53.313Z,7.10
2024-04-11T02:32:04.987Z,6.60
2024-04-11T02:34:18.667Z,7.40
2024-04-11T02:36:30.840Z,7.20
2024-04-11T02:38:42.017Z,6.90
2024-04-11T02:40:53.576Z,7.30
2024-04-11T02:43:05.707Z,8.40
2024-04-11T02:45:19.445Z,8.60
2024-04-11T02:47:31.730Z,8.00
2024-04-11T02:49:43.796Z,6.80
2024-04-11T02:51:55.174Z,7.60
2024-04-11T02:54:07.229Z,6.70
2024-04-11T02:56:19.161Z,7.00
2024-04-11T02:58:30.954Z,6.50
2024-04-11T03:00:42.761Z,7.30
2024-04-11T03:02:54.637Z,7.30
2024-04-11T03:05:07.413Z,7.60
2024-04-11T03:07:22.523Z,6.80
2024-04-11T03:09:33.694Z,6.70
2024-04-11T03:11:45.516Z,6.20
2024-04-11T03:13:59.016Z,6.10
2024-04-11T03:16:15.841Z,6.30
2024-04-11T03:18:33.816Z,6.50
2024-04-11T03:20:53.564Z,6.40
2024-04-11T03:23:05.642Z,6.40
2024-04-11T03:25:16.909Z,6.60
2024-04-11T03:27:29.829Z,7.20
2024-04-11T03:29:45.277Z,6.70
2024-04-11T03:31:57.298Z,6.90
2024-04-11T03:34:08.746Z,6.90
2024-04-11T03:36:21.084Z,6.80
2024-04-11T03:38:34.177Z,7.60
2024-04-11T03:40:57.690Z,6.50
2024-04-11T03:43:09.864Z,6.90
2024-04-11T03:45:24.621Z,6.80
2024-04-11T03:47:39.031Z,6.80
2024-04-11T03:49:53.855Z,6.90
2024-04-11T03:52:07.068Z,6.20
2024-04-11T03:54:18.483Z,7.20
2024-04-11T03:56:30.686Z,6.90
2024-04-11T03:58:43.454Z,6.50
2024-04-11T04:00:55.006Z,6.70
2024-04-11T04:03:07.151Z,6.40
2024-04-11T04:05:19.440Z,6.80
2024-04-11T04:07:31.172Z,6.30
2024-04-11T04:09:43.222Z,6.10
2024-04-11T04:11:54.908Z,6.00
2024-04-11T04:14:14.488Z,6.40
2024-04-11T04:16:27.888Z,6.60
2024-04-11T04:18:41.694Z,6.60
2024-04-11T04:20:59.626Z,6.40
2024-04-11T04:23:11.897Z,7.10
2024-04-11T04:25:23.658Z,6.80
2024-04-11T04:27:35.064Z,8.10
2024-04-11T04:29:47.587Z,8.50
2024-04-11T04:31:59.245Z,8.10
2024-04-11T04:34:11.429Z,8.20
2024-04-11T04:36:27.477Z,8.60
2024-04-11T04:38:40.235Z,9.40
2024-04-11T04:40:53.783Z,9.80
2024-04-11T04:43:07.118Z,11.10
2024-04-11T04:45:18.795Z,11.60
2024-04-11T04:47:30.690Z,11.00
2024-04-11T04:49:42.995Z,11.60
2024-04-11T04:51:54.226Z,12.80
2024-04-11T04:54:07.692Z,14.20
2024-04-11T04:56:20.949Z,15.10
2024-04-11T04:58:32.498Z,15.30
2024-04-11T05:00:44.144Z,16.60
2024-04-11T05:02:56.888Z,18.30
2024-04-11T05:05:08.922Z,19.90
2024-04-11T05:07:21.405Z,20.70
2024-04-11T05:09:32.786Z,22.20
2024-04-11T05:11:45.709Z,22.30
2024-04-11T05:13:58.362Z,23.10
2024-04-11T05:16:11.517Z,22.80
2024-04-11T05:18:23.045Z,22.90
2024-04-11T05:20:35.370Z,24.20
2024-04-11T05:22:48.439Z,23.90
2024-04-11T05:24:59.512Z,21.60
2024-04-11T05:27:12.966Z,19.10
2024-04-11T05:29:26.772Z,20.00
2024-04-11T05:31:39.329Z,19.00
2024-04-11T05:33:54.907Z,18.80
2024-04-11T05:36:07.505Z,17.90
2024-04-11T05:38:19.066Z,21.30
2024-04-11T05:40:34.195Z,19.40
2024-04-11T05:42:46.743Z,16.80
2024-04-11T05:44:58.547Z,17.30
2024-04-11T05:47:09.985Z,16.30
2024-04-11T05:49:21.700Z,16.30
2024-04-11T05:51:33.179Z,16.50
2024-04-11T05:53:44.795Z,17.30
2024-04-11T05:55:58.098Z,20.80
2024-04-11T05:58:11.762Z,19.70
2024-04-11T06:00:30.576Z,58.30
2024-04-11T06:02:42.913Z,35.40
2024-04-11T06:04:54.605Z,18.00
2024-04-11T06:07:07.491Z,11.40
2024-04-11T06:09:19.760Z,9.70
2024-04-11T06:11:31.357Z,10.80
2024-04-11T06:13:42.895Z,12.10
2024-04-11T06:15:56.098Z,13.30
2024-04-11T06:18:11.157Z,10.30
2024-04-11T06:20:25.397Z,9.40
2024-04-11T06:22:36.938Z,8.70
2024-04-11T06:24:48.660Z,8.80
2024-04-11T06:27:00.500Z,9.70
2024-04-11T06:29:13.364Z,8.80
2024-04-11T06:31:31.755Z,8.10
2024-04-11T06:33:43.722Z,7.30
2024-04-11T06:36:40.602Z,8.60
2024-04-11T06:38:53.374Z,8.00
2024-04-11T06:41:06.198Z,8.00
2024-04-11T06:43:18.220Z,7.80
2024-04-11T06:45:31.214Z,7.00
2024-04-11T06:47:50.164Z,8.80
2024-04-11T06:50:03.174Z,7.50
2024-04-11T06:52:15.585Z,6.80
2024-04-11T06:54:28.715Z,6.70
2024-04-11T06:56:40.417Z,8.60
2024-04-11T06:58:52.377Z,7.50
2024-04-11T07:01:05.668Z,8.80
2024-04-11T07:03:26.870Z,6.80
2024-04-11T07:05:38.709Z,7.20
2024-04-11T07:07:56.843Z,6.10
2024-04-11T07:12:30.978Z,5.80
2024-04-11T07:14:43.120Z,5.10
2024-04-11T07:16:58.621Z,5.40
2024-04-11T07:19:10.611Z,6.40
2024-04-11T07:21:31.738Z,5.70
2024-04-11T07:23:43.691Z,5.30
2024-04-11T07:25:55.692Z,5.00
2024-04-11T07:28:09.078Z,5.80
2024-04-11T07:30:22.091Z,5.90
2024-04-11T07:32:34.302Z,5.30
2024-04-11T07:34:49.174Z,6.40
2024-04-11T07:37:00.724Z,6.10
2024-04-11T07:39:15.426Z,6.50
2024-04-11T07:41:46.366Z,6.30
2024-04-11T07:44:01.342Z,5.00
2024-04-11T07:46:15.459Z,5.60
2024-04-11T07:48:29.995Z,5.70
2024-04-11T07:50:41.205Z,5.60
2024-04-11T07:52:53.829Z,5.60
2024-04-11T07:55:05.610Z,5.30
2024-04-11T07:57:21.445Z,4.90
2024-04-11T07:59:33.490Z,4.50
2024-04-11T08:01:45.824Z,5.10
2024-04-11T08:04:02.189Z,4.90
2024-04-11T08:06:16.328Z,7.40
2024-04-11T08:08:27.821Z,6.50
2024-04-11T08:10:39.927Z,6.20
2024-04-11T08:12:52.225Z,4.90
2024-04-11T08:15:03.679Z,5.10
2024-04-11T08:17:17.073Z,5.80
2024-04-11T08:19:33.524Z,6.90
2024-04-11T08:21:47.624Z,5.50
2024-04-11T08:24:02.341Z,4.80
2024-04-11T08:26:16.858Z,5.10
2024-04-11T08:28:28.912Z,5.20
2024-04-11T08:30:41.888Z,3.80
2024-04-11T08:32:53.973Z,4.10
2024-04-11T08:35:07.854Z,3.90
2024-04-11T08:37:23.712Z,3.90
2024-04-11T08:39:36.088Z,4.00
2024-04-11T08:41:53.073Z,4.40
2024-04-11T08:44:06.277Z,4.20
2024-04-11T08:46:18.615Z,4.20
2024-04-11T08:48:30.570Z,3.70
2024-04-11T08:50:46.682Z,3.60
2024-04-11T08:53:00.851Z,3.70
2024-04-11T08:55:16.480Z,3.90
2024-04-11T08:57:28.837Z,3.40
2024-04-11T08:59:43.117Z,3.70
2024-04-11T09:01:56.100Z,3.90
2024-04-11T09:04:09.715Z,3.40
2024-04-11T09:06:26.416Z,3.20
2024-04-11T09:08:38.019Z,3.80
2024-04-11T09:10:49.618Z,3.50
2024-04-11T09:13:00.979Z,3.40
2024-04-11T09:15:12.982Z,3.30
2024-04-11T09:17:24.698Z,4.00
2024-04-11T09:19:41.626Z,3.70
2024-04-11T09:21:54.245Z,3.50
2024-04-11T09:24:15.339Z,3.70
2024-04-11T09:26:28.875Z,3.20
2024-04-11T09:28:41.489Z,4.00
2024-04-11T09:30:56.718Z,4.10
2024-04-11T09:33:12.531Z,4.20
2024-04-11T09:35:25.328Z,3.60
2024-04-11T09:37:37.515Z,4.20
2024-04-11T09:39:51.117Z,3.50
2024-04-11T09:42:07.591Z,3.30
2024-04-11T09:44:32.716Z,3.70
2024-04-11T09:46:47.044Z,3.30
2024-04-11T09:49:00.255Z,3.80
2024-04-11T09:51:16.625Z,3.80
2024-04-11T09:53:31.242Z,3.30
2024-04-11T09:55:42.953Z,4.80
2024-04-11T09:57:54.956Z,3.60
2024-04-11T10:00:10.127Z,3.70
2024-04-11T10:02:22.475Z,2.80
2024-04-11T10:04:38.310Z,3.20
2024-04-11T10:06:53.685Z,3.90
2024-04-11T10:09:19.195Z,3.70
2024-04-11T10:11:32.395Z,2.90
2024-04-11T10:13:50.320Z,3.20
2024-04-11T10:16:15.454Z,3.20
2024-04-11T10:18:47.750Z,2.90
2024-04-11T10:21:04.166Z,2.60
2024-04-11T10:23:25.799Z,3.30
2024-04-11T10:25:39.473Z,3.90
2024-04-11T10:27:52.851Z,2.60
2024-04-11T10:30:07.354Z,2.60
2024-04-11T10:32:28.509Z,2.70
2024-04-11T10:34:49.029Z,2.50
2024-04-11T10:37:08.996Z,2.80
2024-04-11T10:39:20.936Z,2.40
2024-04-11T10:41:34.385Z,2.50
2024-04-11T10:43:46.995Z,2.20
2024-04-11T10:45:58.420Z,2.80
2024-04-11T10:48:11.072Z,2.20
2024-04-11T10:50:25.557Z,2.50
2024-04-11T10:52:41.002Z,2.10
2024-04-11T10:55:06.406Z,2.30
2024-04-11T10:57:18.091Z,2.60
2024-04-11T10:59:33.993Z,2.50
2024-04-11T11:02:06.174Z,3.80
2024-04-11T11:04:22.099Z,3.00
2024-04-11T11:06:41.154Z,3.30
2024-04-11T11:09:13.085Z,2.40
2024-04-11T11:11:26.696Z,2.90
2024-04-11T11:13:43.667Z,2.80
2024-04-11T11:15:56.899Z,2.80
2024-04-11T11:18:08.423Z,2.60
2024-04-11T11:20:20.645Z,2.50
2024-04-11T11:22:35.233Z,2.50
2024-04-11T11:24:48.396Z,2.70
2024-04-11T11:27:01.264Z,2.70
2024-04-11T11:29:21.299Z,3.20
2024-04-11T11:31:37.887Z,3.10
2024-04-11T11:33:52.989Z,2.90
2024-04-11T11:36:05.916Z,2.50
2024-04-11T11:38:19.508Z,3.60
2024-04-11T11:40:39.564Z,3.70
2024-04-11T11:42:53.766Z,3.20
2024-04-11T11:45:09.923Z,3.20
2024-04-11T11:47:21.318Z,2.90
2024-04-11T11:49:37.394Z,3.50
2024-04-11T11:51:49.286Z,3.50
2024-04-11T11:54:01.960Z,2.80
2024-04-11T11:56:13.889Z,3.10
2024-04-11T11:58:26.097Z,3.30
2024-04-11T12:00:51.916Z,3.30
2024-04-11T12:03:21.593Z,3.20
2024-04-11T12:05:40.693Z,3.00
2024-04-11T12:07:55.749Z,4.80
2024-04-11T12:10:16.263Z,4.00
2024-04-11T12:12:33.549Z,3.50
2024-04-11T12:14:56.746Z,3.50
2024-04-11T12:17:11.932Z,3.30
2024-04-11T12:19:29.412Z,3.50
2024-04-11T12:21:46.547Z,3.20
2024-04-11T12:23:58.585Z,3.10
2024-04-11T12:26:13.465Z,3.30
2024-04-11T12:28:30.159Z,3.90
2024-04-11T12:30:43.607Z,3.60
2024-04-11T12:32:58.398Z,3.30
2024-04-11T12:35:09.965Z,3.30
2024-04-11T12:37:26.209Z,3.80
2024-04-11T12:39:55.634Z,4.00
2024-04-11T12:42:09.230Z,3.20
2024-04-11T12:44:28.631Z,3.30
2024-04-11T12:46:53.969Z,4.20
2024-04-11T12:49:17.150Z,4.00
2024-04-11T12:51:32.100Z,3.80
2024-04-11T12:53:43.219Z,4.80
2024-04-11T12:55:56.938Z,3.40
2024-04-11T12:58:08.509Z,3.60
2024-04-11T13:00:40.566Z,3.20
2024-04-11T13:03:07.944Z,3.70
2024-04-11T13:05:19.937Z,3.30
2024-04-11T13:07:31.993Z,3.30
2024-04-11T13:09:56.673Z,3.60
2024-04-11T13:12:10.678Z,3.20
2024-04-11T13:14:28.623Z,3.40
2024-04-11T13:16:46.247Z,3.50
2024-04-11T13:18:57.783Z,3.60
2024-04-11T13:21:15.743Z,4.20
2024-04-11T13:23:27.753Z,3.90
2024-04-11T13:25:46.521Z,3.60
2024-04-11T13:27:58.249Z,3.60
2024-04-11T13:30:13.443Z,4.20
2024-04-11T13:32:31.215Z,3.90
2024-04-11T13:35:07.927Z,3.00
2024-04-11T13:37:22.065Z,3.40
2024-04-11T13:39:45.220Z,3.50
2024-04-11T13:41:57.797Z,4.10
2024-04-11T13:44:17.556Z,3.60
2024-04-11T13:46:36.067Z,3.90
2024-04-11T13:48:52.047Z,3.00
2024-04-11T13:51:11.000Z,3.20
2024-04-11T13:53:22.549Z,3.30
2024-04-11T13:55:43.067Z,3.20
2024-04-11T13:57:54.769Z,2.80
2024-04-11T14:00:10.387Z,4.40
2024-04-11T14:02:42.546Z,3.20
2024-04-11T14:05:00.598Z,3.50
2024-04-11T14:07:20.992Z,3.40
2024-04-11T14:09:37.743Z,3.80
2024-04-11T14:11:50.032Z,3.00
2024-04-11T14:14:02.497Z,3.40
2024-04-11T14:16:14.389Z,3.60
2024-04-11T14:18:30.395Z,3.90
2024-04-11T14:20:46.131Z,3.90
2024-04-11T14:23:16.522Z,3.80
2024-04-11T14:25:31.889Z,3.40
2024-04-11T14:27:44.679Z,3.40
2024-04-11T14:30:02.886Z,3.40
2024-04-11T14:32:25.398Z,3.10
2024-04-11T14:34:55.534Z,3.20
2024-04-11T14:37:38.314Z,3.50
2024-04-11T14:39:53.628Z,3.10
2024-04-11T14:42:06.623Z,3.90
2024-04-11T14:44:20.063Z,3.30
2024-04-11T14:46:35.363Z,3.20
2024-04-11T14:48:51.532Z,2.90
2024-04-11T14:51:10.516Z,3.70
2024-04-11T14:55:39.932Z,2.90
2024-04-11T14:57:53.643Z,3.20
2024-04-11T15:00:24.606Z,3.60
2024-04-11T15:02:35.882Z,2.80
2024-04-11T15:04:52.797Z,3.00
2024-04-11T15:07:11.639Z,3.20
2024-04-11T15:09:31.070Z,2.80
2024-04-11T15:11:42.919Z,2.70
2024-04-11T15:13:54.996Z,2.80
2024-04-11T15:16:43.604Z,2.70
2024-04-11T15:18:55.282Z,2.40
2024-04-11T15:21:16.649Z,2.30
2024-04-11T15:23:29.502Z,2.70
2024-04-11T15:25:45.906Z,2.70
2024-04-11T15:27:58.107Z,2.60
2024-04-11T15:30:10.110Z,2.50
2024-04-11T15:32:24.897Z,2.60
2024-04-11T15:34:43.021Z,2.80
2024-04-11T15:39:17.067Z,2.20
2024-04-11T15:41:34.385Z,2.30
2024-04-11T15:43:50.881Z,2.50
2024-04-11T15:46:09.358Z,3.50
2024-04-11T15:48:23.130Z,2.30
2024-04-11T15:50:35.343Z,2.40
2024-04-11T15:52:47.469Z,2.20
2024-04-11T15:54:58.902Z,2.60
2024-04-11T15:57:10.642Z,3.10
2024-04-11T15:59:24.418Z,3.00
2024-04-11T16:01:44.508Z,2.20
2024-04-11T16:03:57.205Z,2.40
2024-04-11T16:06:11.940Z,3.00
2024-04-11T16:08:24.298Z,3.00
2024-04-11T16:10:37.053Z,3.30
2024-04-11T16:12:48.645Z,3.10
2024-04-11T16:15:00.100Z,2.90
2024-04-11T16:17:14.528Z,3.10
2024-04-11T16:19:32.384Z,2.40
2024-04-11T16:21:45.669Z,3.40
2024-04-11T16:23:59.611Z,2.80
2024-04-11T16:26:14.017Z,3.60
2024-04-11T16:28:30.296Z,3.20
2024-04-11T16:31:05.153Z,3.00
2024-04-11T16:33:18.754Z,3.10
2024-04-11T16:35:30.597Z,3.80
2024-04-11T16:37:48.151Z,5.50
2024-04-11T16:40:04.591Z,4.30
2024-04-11T16:42:20.226Z,3.90
2024-04-11T16:44:37.813Z,3.20
2024-04-11T16:46:53.784Z,3.20
2024-04-11T16:51:18.102Z,3.00
2024-04-11T16:53:34.138Z,3.30
2024-04-11T16:55:48.930Z,3.10
2024-04-11T16:58:06.836Z,3.20
2024-04-11T17:00:29.005Z,2.70
2024-04-11T17:02:43.485Z,3.00
2024-04-11T17:05:02.482Z,2.90
2024-04-11T17:07:25.773Z,2.80
2024-04-11T17:09:39.095Z,2.70
2024-04-11T17:11:55.207Z,2.50
2024-04-11T17:14:07.580Z,2.50
2024-04-11T17:16:25.727Z,2.40
2024-04-11T17:18:53.748Z,2.60
2024-04-11T17:21:11.953Z,2.70
2024-04-11T17:23:23.527Z,2.60
2024-04-11T17:25:35.008Z,2.60
2024-04-11T17:27:47.250Z,2.40
2024-04-11T17:30:01.838Z,2.70
2024-04-11T17:32:14.810Z,2.60
2024-04-11T17:34:31.160Z,2.90
2024-04-11T17:36:43.380Z,2.80
2024-04-11T17:39:16.900Z,2.90
2024-04-11T17:41:40.147Z,2.70
2024-04-11T17:43:58.976Z,2.60
2024-04-11T17:46:10.476Z,2.70
2024-04-11T17:48:33.467Z,2.80
2024-04-11T17:50:46.068Z,3.10
2024-04-11T17:53:06.883Z,3.20
2024-04-11T17:55:25.252Z,3.20
2024-04-11T17:59:54.734Z,3.80
2024-04-11T18:02:06.419Z,3.50
2024-04-11T18:04:17.869Z,3.80
2024-04-11T18:06:40.017Z,3.40
2024-04-11T18:08:52.962Z,3.70
2024-04-11T18:11:08.791Z,3.10
2024-04-11T18:13:23.889Z,4.20
2024-04-11T18:15:41.630Z,4.80
2024-04-11T18:17:55.693Z,7.40
2024-04-11T18:20:11.965Z,15.20
2024-04-11T18:22:24.879Z,11.00
2024-04-11T18:24:36.278Z,9.90
2024-04-11T18:26:50.442Z,6.80
2024-04-11T18:29:08.008Z,5.10
2024-04-11T18:31:29.415Z,5.10
2024-04-11T18:33:44.878Z,4.50
2024-04-11T18:35:57.321Z,4.50
2024-04-11T18:38:14.658Z,3.80
2024-04-11T18:40:26.437Z,3.90
2024-04-11T18:42:45.669Z,4.00
2024-04-11T18:45:01.419Z,4.40
2024-04-11T18:47:31.851Z,4.40
2024-04-11T18:49:47.005Z,4.50
2024-04-11T18:52:01.927Z,5.80
2024-04-11T18:54:22.156Z,4.80
2024-04-11T18:56:34.663Z,4.60
2024-04-11T18:58:46.812Z,6.40
2024-04-11T19:00:58.634Z,6.30
2024-04-11T19:03:18.163Z,5.70
2024-04-11T19:05:31.296Z,6.80
2024-04-11T19:07:46.589Z,7.00
2024-04-11T19:09:58.498Z,7.90
2024-04-11T19:12:14.505Z,7.80
2024-04-11T19:14:30.515Z,7.60
2024-04-11T19:16:43.538Z,6.90
2024-04-11T19:18:55.659Z,6.00
2024-04-11T19:21:17.317Z,5.50
2024-04-11T19:23:37.622Z,5.40
2024-04-11T19:25:49.354Z,4.60
2024-04-11T19:28:10.058Z,4.60
2024-04-11T19:30:22.678Z,4.70
2024-04-11T19:32:34.059Z,4.30
2024-04-11T19:34:49.854Z,4.30
2024-04-11T19:37:06.182Z,4.30
2024-04-11T19:39:20.963Z,4.10
2024-04-11T19:44:51.443Z,4.40
2024-04-11T19:47:05.320Z,4.90
2024-04-11T19:49:17.716Z,4.60
2024-04-11T19:51:29.387Z,6.10
2024-04-11T19:53:43.134Z,5.90
2024-04-11T19:55:54.960Z,6.60
2024-04-11T19:58:12.438Z,6.30
2024-04-11T20:00:39.634Z,5.40
2024-04-11T20:02:59.221Z,9.30
2024-04-11T20:05:26.882Z,6.50
2024-04-11T20:07:41.773Z,6.30
2024-04-11T20:09:53.764Z,6.70
2024-04-11T20:12:18.281Z,6.20
2024-04-11T20:14:34.119Z,6.10
2024-04-11T20:16:46.273Z,5.90
2024-04-11T20:18:58.171Z,5.20
2024-04-11T20:21:17.212Z,5.80
2024-04-11T20:23:32.405Z,5.30
2024-04-11T20:26:04.051Z,6.10
2024-04-11T20:28:28.525Z,4.90
2024-04-11T20:30:42.536Z,4.20
2024-04-11T20:32:56.877Z,4.60
2024-04-11T20:35:26.311Z,5.10
2024-04-11T20:37:44.662Z,4.40
2024-04-11T20:40:01.414Z,4.70
2024-04-11T20:42:38.637Z,4.30
2024-04-11T20:44:55.819Z,3.50
2024-04-11T20:47:11.224Z,3.50
2024-04-11T20:49:37.548Z,4.10
2024-04-11T20:52:07.768Z,4.20
2024-04-11T20:54:37.998Z,3.60
2024-04-11T20:57:08.140Z,4.00
2024-04-11T20:59:38.771Z,4.40
2024-04-11T21:02:08.975Z,4.20
2024-04-11T21:04:39.225Z,4.00
2024-04-11T21:07:09.960Z,3.70
2024-04-11T21:09:41.296Z,3.40
2024-04-11T21:12:12.158Z,3.50
2024-04-11T21:14:42.485Z,3.70
2024-04-11T21:17:21.323Z,4.20
2024-04-11T21:19:51.578Z,4.20
2024-04-11T21:22:21.710Z,3.30
2024-04-11T21:24:51.828Z,3.90
2024-04-11T21:27:22.148Z,3.60
2024-04-11T21:29:52.819Z,3.90
2024-04-11T21:32:23.412Z,3.90
2024-04-11T21:34:35.096Z,4.00
2024-04-11T21:36:48.030Z,4.20
2024-04-11T21:39:01.724Z,4.20
2024-04-11T21:41:30.517Z,3.90
2024-04-11T21:43:54.180Z,3.70
2024-04-11T21:46:10.746Z,4.20
2024-04-11T21:48:24.828Z,3.80
2024-04-11T21:50:43.879Z,3.50
2024-04-11T21:52:57.032Z,4.20
2024-04-11T21:55:12.843Z,3.60
2024-04-11T21:57:28.216Z,3.90
2024-04-11T21:59:40.657Z,3.80
2024-04-11T22:01:59.128Z,4.00
2024-04-11T22:04:12.727Z,3.50
2024-04-11T22:06:25.999Z,3.90
2024-04-11T22:08:37.401Z,3.90
2024-04-11T22:10:49.320Z,4.40
2024-04-11T22:13:00.457Z,4.90
2024-04-11T22:15:18.740Z,4.90
2024-04-11T22:20:01.779Z,4.90
2024-04-11T22:22:16.249Z,4.90
2024-04-11T22:24:33.303Z,4.80
2024-04-11T22:26:45.672Z,4.90
2024-04-11T22:29:05.389Z,4.40
2024-04-11T22:31:17.951Z,4.60
2024-04-11T22:33:38.301Z,4.70
2024-04-11T22:35:51.005Z,4.50
2024-04-11T22:38:02.575Z,4.70
2024-04-11T22:40:20.646Z,4.50
2024-04-11T22:42:36.499Z,5.00
2024-04-11T22:44:49.360Z,4.30
2024-04-11T22:47:02.938Z,4.70
2024-04-11T22:49:17.452Z,5.20
2024-04-11T22:51:30.991Z,5.60
2024-04-11T22:53:50.431Z,5.70
2024-04-11T22:56:10.883Z,6.30
2024-04-11T22:58:22.251Z,5.80
2024-04-11T23:00:37.548Z,6.10
2024-04-11T23:02:53.269Z,5.90
2024-04-11T23:05:07.608Z,6.70
2024-04-11T23:07:40.752Z,7.70
2024-04-11T23:09:54.739Z,7.70
2024-04-11T23:12:10.136Z,7.80
2024-04-11T23:14:21.672Z,8.60
2024-04-11T23:16:36.313Z,7.30
2024-04-11T23:18:48.180Z,6.60
2024-04-11T23:21:13.508Z,7.00
2024-04-11T23:23:27.657Z,7.90
2024-04-11T23:25:39.728Z,8.20
2024-04-11T23:27:53.545Z,8.50
2024-04-11T23:30:09.290Z,9.00
2024-04-11T23:32:21.213Z,8.70
2024-04-11T23:34:33.621Z,8.50
2024-04-11T23:36:46.713Z,8.30
2024-04-11T23:39:00.400Z,8.60
2024-04-11T23:41:19.152Z,8.50
2024-04-11T23:43:45.715Z,8.00
2024-04-11T23:46:01.537Z,7.60
2024-04-11T23:48:19.777Z,6.80
2024-04-11T23:50:37.870Z,6.00
2024-04-11T23:52:53.180Z,5.50
2024-04-11T23:55:10.266Z,4.90
2024-04-11T23:57:27.994Z,4.30
2024-04-11T23:59:41.374Z,3.90
